RYR282 LEPA-LPPT
Flight info
| Callsign | RYR282 |
|---|---|
| Flight time | 1h 48m |
| Altitude | 37000 |
| Route | EPAMA N733 VLC/N0456F360 DCT CLS DCT WALLY DCT CATON DCT CENTA DCT PRADO DCT BENED DCT CJN/N0457F370 DCT PALIO DCT AKOKI DCT GOTOR DCT TLD DCT NATPA DCT MELON DCT CCS DCT UPULO |
| Aircraft | B38M/M-SDE1FGHILORVWXY/HB1 |
Departure
| Time | 2026-05-06 12:50 |
|---|---|
| Airport | Palma de Mallorca Airport (LEPA) |
Arrival
| Time | 2026-05-06 14:38 |
|---|---|
| Airport | Lisbon Humberto Delgado Airport (LPPT) |
| Time | Latitude | Longitude | Altitude | Speed | Heading |
|---|---|---|---|---|---|
| 2026-05-06 12:45 | 39.55093 | 2.73808 | 32 ft | 0 kts | 328° |
| 2026-05-06 12:45 | 39.55126 | 2.73783 | 32 ft | 10 kts | 328° |
| 2026-05-06 12:46 | 39.55176 | 2.73795 | 32 ft | 6 kts | 59° |
| 2026-05-06 12:46 | 39.55214 | 2.73820 | 32 ft | 7 kts | 342° |
| 2026-05-06 12:46 | 39.55270 | 2.73778 | 32 ft | 14 kts | 329° |
| 2026-05-06 12:46 | 39.55385 | 2.73689 | 32 ft | 24 kts | 329° |
| 2026-05-06 12:47 | 39.55521 | 2.73582 | 32 ft | 21 kts | 328° |
| 2026-05-06 12:47 | 39.55599 | 2.73520 | 32 ft | 7 kts | 328° |
| 2026-05-06 12:47 | 39.55643 | 2.73504 | 32 ft | 4 kts | 20° |
| 2026-05-06 12:47 | 39.55679 | 2.73551 | 32 ft | 14 kts | 55° |
| 2026-05-06 12:48 | 39.55753 | 2.73707 | 32 ft | 24 kts | 59° |
| 2026-05-06 12:48 | 39.55844 | 2.73900 | 32 ft | 26 kts | 57° |
| 2026-05-06 12:48 | 39.55938 | 2.74095 | 32 ft | 24 kts | 58° |
| 2026-05-06 12:48 | 39.56044 | 2.74255 | 32 ft | 24 kts | 33° |
| 2026-05-06 12:49 | 39.56150 | 2.74345 | 32 ft | 11 kts | 33° |
| 2026-05-06 12:49 | 39.56213 | 2.74380 | 32 ft | 7 kts | 349° |
| 2026-05-06 12:49 | 39.56235 | 2.74339 | 32 ft | 15 kts | 281° |
| 2026-05-06 12:49 | 39.56160 | 2.74124 | 32 ft | 38 kts | 239° |
| 2026-05-06 12:50 | 39.55883 | 2.73541 | 32 ft | 115 kts | 238° |
| 2026-05-06 12:50 | 39.55343 | 2.72406 | 42 ft | 176 kts | 240° |
| 2026-05-06 12:50 | 39.54734 | 2.71059 | 900 ft | 162 kts | 237° |
| 2026-05-06 12:50 | 39.54116 | 2.69761 | 1593 ft | 183 kts | 235° |
| 2026-05-06 12:51 | 39.53352 | 2.68292 | 2073 ft | 211 kts | 232° |
| 2026-05-06 12:51 | 39.52451 | 2.66723 | 2916 ft | 220 kts | 233° |
| 2026-05-06 12:51 | 39.51598 | 2.65061 | 3891 ft | 223 kts | 238° |
| 2026-05-06 12:51 | 39.50773 | 2.63365 | 4970 ft | 224 kts | 237° |
| 2026-05-06 12:52 | 39.49924 | 2.61652 | 5969 ft | 225 kts | 237° |
| 2026-05-06 12:52 | 39.49086 | 2.59930 | 6894 ft | 231 kts | 243° |
| 2026-05-06 12:52 | 39.48684 | 2.57869 | 7402 ft | 252 kts | 270° |
| 2026-05-06 12:52 | 39.48977 | 2.55545 | 8027 ft | 270 kts | 282° |
| 2026-05-06 12:53 | 39.49244 | 2.53096 | 8926 ft | 274 kts | 276° |
| 2026-05-06 12:53 | 39.49463 | 2.50669 | 9992 ft | 275 kts | 276° |
| 2026-05-06 12:53 | 39.49700 | 2.48154 | 10663 ft | 290 kts | 276° |
| 2026-05-06 12:53 | 39.49956 | 2.45463 | 11126 ft | 310 kts | 276° |
| 2026-05-06 12:54 | 39.50232 | 2.42613 | 11597 ft | 327 kts | 276° |
| 2026-05-06 12:54 | 39.50523 | 2.39640 | 12244 ft | 336 kts | 276° |
| 2026-05-06 12:54 | 39.50822 | 2.36628 | 13146 ft | 338 kts | 276° |
| 2026-05-06 12:54 | 39.51125 | 2.33591 | 13910 ft | 342 kts | 275° |
| 2026-05-06 12:55 | 39.51428 | 2.30565 | 14646 ft | 345 kts | 275° |
| 2026-05-06 12:55 | 39.51737 | 2.27465 | 15387 ft | 347 kts | 275° |
| 2026-05-06 12:55 | 39.52047 | 2.24353 | 16138 ft | 349 kts | 275° |
| 2026-05-06 12:55 | 39.52359 | 2.21216 | 16812 ft | 353 kts | 275° |
| 2026-05-06 12:56 | 39.52673 | 2.18050 | 17487 ft | 356 kts | 275° |
| 2026-05-06 12:56 | 39.52989 | 2.14843 | 18151 ft | 359 kts | 275° |
| 2026-05-06 12:56 | 39.53307 | 2.11620 | 18733 ft | 362 kts | 275° |
| 2026-05-06 12:56 | 39.53523 | 2.09419 | 19129 ft | 364 kts | 275° |
| 2026-05-06 12:57 | 39.53750 | 2.07098 | 19542 ft | 366 kts | 275° |
| 2026-05-06 12:57 | 39.54021 | 2.04339 | 20027 ft | 367 kts | 274° |
| 2026-05-06 12:58 | 39.54099 | 2.03534 | 20166 ft | 368 kts | 274° |
| 2026-05-06 12:58 | 39.54422 | 2.00229 | 20729 ft | 371 kts | 274° |
| 2026-05-06 12:58 | 39.54745 | 1.96903 | 21287 ft | 373 kts | 274° |
| 2026-05-06 12:58 | 39.55068 | 1.93574 | 21836 ft | 376 kts | 274° |
| 2026-05-06 12:59 | 39.55396 | 1.90185 | 22387 ft | 378 kts | 274° |
| 2026-05-06 12:59 | 39.55724 | 1.86780 | 22938 ft | 381 kts | 274° |
| 2026-05-06 12:59 | 39.56049 | 1.83404 | 23458 ft | 383 kts | 274° |
| 2026-05-06 12:59 | 39.56379 | 1.79954 | 23919 ft | 385 kts | 274° |
| 2026-05-06 13:00 | 39.56709 | 1.76501 | 24374 ft | 387 kts | 274° |
| 2026-05-06 13:00 | 39.57037 | 1.73061 | 24856 ft | 388 kts | 274° |
| 2026-05-06 13:00 | 39.57368 | 1.69577 | 25291 ft | 390 kts | 274° |
| 2026-05-06 13:00 | 39.57699 | 1.66073 | 25715 ft | 392 kts | 274° |
| 2026-05-06 13:01 | 39.58031 | 1.62561 | 26144 ft | 393 kts | 274° |
| 2026-05-06 13:11 | 39.58173 | 1.60106 | 26425 ft | 391 kts | 265° |
| 2026-05-06 13:11 | 39.57918 | 1.56592 | 26838 ft | 392 kts | 263° |
| 2026-05-06 13:12 | 39.57735 | 1.53046 | 27202 ft | 395 kts | 264° |
| 2026-05-06 13:12 | 39.57576 | 1.49476 | 27643 ft | 396 kts | 264° |
| 2026-05-06 13:12 | 39.57432 | 1.45935 | 28054 ft | 398 kts | 264° |
| 2026-05-06 13:12 | 39.57293 | 1.42365 | 28429 ft | 400 kts | 264° |
| 2026-05-06 13:13 | 39.57154 | 1.38747 | 28812 ft | 402 kts | 264° |
| 2026-05-06 13:13 | 39.57016 | 1.35105 | 29129 ft | 404 kts | 264° |
| 2026-05-06 13:13 | 39.56877 | 1.31491 | 29422 ft | 407 kts | 264° |
| 2026-05-06 13:13 | 39.56734 | 1.27790 | 29801 ft | 409 kts | 264° |
| 2026-05-06 13:14 | 39.56592 | 1.24144 | 30118 ft | 411 kts | 264° |
| 2026-05-06 13:14 | 39.56445 | 1.20418 | 30425 ft | 412 kts | 264° |
| 2026-05-06 13:14 | 39.56298 | 1.16705 | 30804 ft | 412 kts | 264° |
| 2026-05-06 13:14 | 39.56150 | 1.12985 | 31261 ft | 410 kts | 264° |
| 2026-05-06 13:15 | 39.56004 | 1.09362 | 31742 ft | 407 kts | 264° |
| 2026-05-06 13:15 | 39.55856 | 1.05704 | 32223 ft | 404 kts | 264° |
| 2026-05-06 13:15 | 39.55707 | 1.02065 | 32659 ft | 402 kts | 264° |
| 2026-05-06 13:15 | 39.55558 | 0.98450 | 33083 ft | 400 kts | 264° |
| 2026-05-06 13:16 | 39.55409 | 0.94854 | 33509 ft | 398 kts | 264° |
| 2026-05-06 13:16 | 39.55261 | 0.91310 | 33917 ft | 397 kts | 264° |
| 2026-05-06 13:16 | 39.55111 | 0.87739 | 34256 ft | 395 kts | 264° |
| 2026-05-06 13:16 | 39.54959 | 0.84164 | 34535 ft | 396 kts | 264° |
| 2026-05-06 13:17 | 39.54808 | 0.80636 | 34788 ft | 396 kts | 264° |
| 2026-05-06 13:17 | 39.54655 | 0.77067 | 35060 ft | 396 kts | 264° |
| 2026-05-06 13:17 | 39.54500 | 0.73487 | 35346 ft | 396 kts | 264° |
| 2026-05-06 13:17 | 39.54346 | 0.69960 | 35634 ft | 396 kts | 264° |
| 2026-05-06 13:18 | 39.54189 | 0.66391 | 35871 ft | 397 kts | 264° |
| 2026-05-06 13:18 | 39.54032 | 0.62838 | 36104 ft | 397 kts | 264° |
| 2026-05-06 13:18 | 39.53873 | 0.59261 | 36330 ft | 398 kts | 264° |
| 2026-05-06 13:18 | 39.53711 | 0.55665 | 36546 ft | 398 kts | 264° |
| 2026-05-06 13:19 | 39.53549 | 0.52075 | 36758 ft | 399 kts | 264° |
| 2026-05-06 13:19 | 39.53385 | 0.48470 | 36937 ft | 400 kts | 264° |
| 2026-05-06 13:19 | 39.53223 | 0.44923 | 36964 ft | 400 kts | 264° |
| 2026-05-06 13:20 | 39.52889 | 0.37702 | 36976 ft | 398 kts | 264° |
| 2026-05-06 13:20 | 39.52554 | 0.30557 | 36958 ft | 398 kts | 264° |
| 2026-05-06 13:21 | 39.52215 | 0.23428 | 36958 ft | 398 kts | 264° |
| 2026-05-06 13:21 | 39.51870 | 0.16248 | 36955 ft | 398 kts | 264° |
| 2026-05-06 13:22 | 39.51524 | 0.09156 | 36960 ft | 398 kts | 264° |
| 2026-05-06 13:22 | 39.51172 | 0.02014 | 36961 ft | 398 kts | 264° |
| 2026-05-06 13:23 | 39.50814 | -0.05156 | 36957 ft | 398 kts | 264° |
| 2026-05-06 13:23 | 39.50513 | -0.11114 | 36961 ft | 399 kts | 264° |
| 2026-05-06 13:24 | 39.50247 | -0.18289 | 36962 ft | 400 kts | 266° |
| 2026-05-06 13:24 | 39.50144 | -0.25456 | 36963 ft | 400 kts | 266° |
| 2026-05-06 13:25 | 39.50040 | -0.32673 | 36967 ft | 400 kts | 266° |
| 2026-05-06 13:25 | 39.49936 | -0.39829 | 36966 ft | 400 kts | 266° |
| 2026-05-06 13:26 | 39.49831 | -0.47024 | 36967 ft | 400 kts | 266° |
| 2026-05-06 13:26 | 39.49723 | -0.54223 | 36966 ft | 400 kts | 266° |
| 2026-05-06 13:27 | 39.49614 | -0.61388 | 36967 ft | 400 kts | 266° |
| 2026-05-06 13:27 | 39.49502 | -0.68586 | 36963 ft | 400 kts | 266° |
| 2026-05-06 13:28 | 39.49390 | -0.75804 | 36958 ft | 400 kts | 266° |
| 2026-05-06 13:28 | 39.49267 | -0.82949 | 36955 ft | 400 kts | 266° |
| 2026-05-06 13:29 | 39.49137 | -0.90168 | 36957 ft | 400 kts | 266° |
| 2026-05-06 13:29 | 39.49006 | -0.97379 | 36960 ft | 400 kts | 266° |
| 2026-05-06 13:30 | 39.48872 | -1.04548 | 36966 ft | 400 kts | 266° |
| 2026-05-06 13:30 | 39.48737 | -1.11760 | 36968 ft | 400 kts | 266° |
| 2026-05-06 13:31 | 39.48601 | -1.18923 | 36969 ft | 400 kts | 266° |
| 2026-05-06 13:31 | 39.48456 | -1.26128 | 36961 ft | 400 kts | 266° |
| 2026-05-06 13:32 | 39.48309 | -1.33343 | 36957 ft | 400 kts | 266° |
| 2026-05-06 13:32 | 39.48162 | -1.40512 | 36951 ft | 400 kts | 266° |
| 2026-05-06 13:33 | 39.48014 | -1.47710 | 36952 ft | 400 kts | 266° |
| 2026-05-06 13:33 | 39.47864 | -1.54890 | 36960 ft | 400 kts | 266° |
| 2026-05-06 13:34 | 39.47719 | -1.62093 | 36947 ft | 400 kts | 266° |
| 2026-05-06 13:34 | 39.47574 | -1.69279 | 36956 ft | 400 kts | 266° |
| 2026-05-06 13:35 | 39.47425 | -1.76469 | 36952 ft | 400 kts | 266° |
| 2026-05-06 13:35 | 39.47275 | -1.83657 | 36953 ft | 400 kts | 266° |
| 2026-05-06 13:36 | 39.47122 | -1.90825 | 36959 ft | 400 kts | 266° |
| 2026-05-06 13:36 | 39.46968 | -1.98050 | 36956 ft | 403 kts | 266° |
| 2026-05-06 13:37 | 39.46812 | -2.05279 | 36955 ft | 403 kts | 266° |
| 2026-05-06 13:37 | 39.46655 | -2.12519 | 36952 ft | 403 kts | 266° |
| 2026-05-06 13:38 | 39.46495 | -2.19796 | 36952 ft | 403 kts | 266° |
| 2026-05-06 13:38 | 39.46333 | -2.27021 | 36956 ft | 403 kts | 265° |
| 2026-05-06 13:39 | 39.46164 | -2.34288 | 36954 ft | 404 kts | 266° |
| 2026-05-06 13:39 | 39.45989 | -2.41527 | 36955 ft | 405 kts | 266° |
| 2026-05-06 13:40 | 39.45811 | -2.48805 | 36954 ft | 404 kts | 265° |
| 2026-05-06 13:40 | 39.45631 | -2.56050 | 36950 ft | 404 kts | 265° |
| 2026-05-06 13:41 | 39.45449 | -2.63340 | 36960 ft | 405 kts | 265° |
| 2026-05-06 13:41 | 39.45262 | -2.70622 | 36950 ft | 405 kts | 265° |
| 2026-05-06 13:42 | 39.45068 | -2.77897 | 36951 ft | 407 kts | 265° |
| 2026-05-06 13:42 | 39.44868 | -2.85234 | 36947 ft | 407 kts | 265° |
| 2026-05-06 13:43 | 39.44667 | -2.92534 | 36947 ft | 407 kts | 265° |
| 2026-05-06 13:43 | 39.44465 | -2.99858 | 36945 ft | 407 kts | 265° |
| 2026-05-06 13:44 | 39.44259 | -3.07181 | 36950 ft | 407 kts | 265° |
| 2026-05-06 13:44 | 39.44040 | -3.14483 | 36951 ft | 409 kts | 265° |
| 2026-05-06 13:45 | 39.43818 | -3.21843 | 36941 ft | 409 kts | 265° |
| 2026-05-06 13:45 | 39.43481 | -3.32861 | 36944 ft | 409 kts | 265° |
| 2026-05-06 13:46 | 39.43254 | -3.40218 | 36940 ft | 409 kts | 265° |
| 2026-05-06 13:46 | 39.43021 | -3.47581 | 36943 ft | 410 kts | 265° |
| 2026-05-06 13:47 | 39.42782 | -3.54930 | 36935 ft | 411 kts | 265° |
| 2026-05-06 13:47 | 39.42538 | -3.62330 | 36934 ft | 411 kts | 265° |
| 2026-05-06 13:48 | 39.42293 | -3.69704 | 36933 ft | 411 kts | 265° |
| 2026-05-06 13:48 | 39.42045 | -3.77084 | 36936 ft | 411 kts | 265° |
| 2026-05-06 13:49 | 39.41795 | -3.84428 | 36935 ft | 411 kts | 265° |
| 2026-05-06 13:49 | 39.41525 | -3.91859 | 36935 ft | 413 kts | 265° |
| 2026-05-06 13:50 | 39.41253 | -3.99246 | 36935 ft | 413 kts | 265° |
| 2026-05-06 13:50 | 39.40978 | -4.06652 | 36936 ft | 413 kts | 265° |
| 2026-05-06 13:51 | 39.40703 | -4.14038 | 36936 ft | 413 kts | 265° |
| 2026-05-06 13:51 | 39.40422 | -4.21471 | 36934 ft | 413 kts | 265° |
| 2026-05-06 13:52 | 39.40140 | -4.28914 | 36936 ft | 413 kts | 265° |
| 2026-05-06 13:52 | 39.39856 | -4.36293 | 36939 ft | 413 kts | 265° |
| 2026-05-06 13:53 | 39.39568 | -4.43705 | 36941 ft | 413 kts | 265° |
| 2026-05-06 13:53 | 39.39282 | -4.51102 | 36943 ft | 413 kts | 265° |
| 2026-05-06 13:54 | 39.38992 | -4.58519 | 36936 ft | 413 kts | 265° |
| 2026-05-06 13:54 | 39.38692 | -4.65955 | 36941 ft | 415 kts | 265° |
| 2026-05-06 13:55 | 39.38388 | -4.73407 | 36930 ft | 414 kts | 265° |
| 2026-05-06 13:55 | 39.38081 | -4.80832 | 36932 ft | 414 kts | 265° |
| 2026-05-06 13:56 | 39.37771 | -4.88286 | 36930 ft | 414 kts | 265° |
| 2026-05-06 13:56 | 39.37460 | -4.95679 | 36938 ft | 414 kts | 265° |
| 2026-05-06 13:57 | 39.37132 | -5.03130 | 36934 ft | 416 kts | 265° |
| 2026-05-06 13:57 | 39.36796 | -5.10604 | 36930 ft | 417 kts | 265° |
| 2026-05-06 13:58 | 39.36459 | -5.18047 | 36929 ft | 417 kts | 265° |
| 2026-05-06 13:58 | 39.36117 | -5.25541 | 36926 ft | 417 kts | 265° |
| 2026-05-06 13:59 | 39.35775 | -5.32977 | 36929 ft | 417 kts | 265° |
| 2026-05-06 13:59 | 39.35417 | -5.40447 | 36931 ft | 419 kts | 265° |
| 2026-05-06 14:00 | 39.35050 | -5.47991 | 36929 ft | 419 kts | 265° |
| 2026-05-06 14:00 | 39.34685 | -5.55466 | 36928 ft | 419 kts | 265° |
| 2026-05-06 14:01 | 39.34314 | -5.62993 | 36928 ft | 419 kts | 265° |
| 2026-05-06 14:01 | 39.33943 | -5.70449 | 36928 ft | 419 kts | 265° |
| 2026-05-06 14:02 | 39.33556 | -5.77988 | 36926 ft | 420 kts | 265° |
| 2026-05-06 14:02 | 39.33166 | -5.85492 | 36920 ft | 420 kts | 265° |
| 2026-05-06 14:03 | 39.32771 | -5.93019 | 36922 ft | 420 kts | 265° |
| 2026-05-06 14:03 | 39.32370 | -6.00536 | 36917 ft | 420 kts | 265° |
| 2026-05-06 14:04 | 39.31972 | -6.08025 | 36924 ft | 420 kts | 265° |
| 2026-05-06 14:04 | 39.31558 | -6.15561 | 36927 ft | 421 kts | 265° |
| 2026-05-06 14:05 | 39.31135 | -6.23113 | 36922 ft | 421 kts | 265° |
| 2026-05-06 14:05 | 39.30711 | -6.30617 | 36924 ft | 421 kts | 264° |
| 2026-05-06 14:06 | 39.30283 | -6.38167 | 36924 ft | 421 kts | 264° |
| 2026-05-06 14:06 | 39.29855 | -6.45662 | 36929 ft | 421 kts | 264° |
| 2026-05-06 14:07 | 39.29405 | -6.53206 | 36929 ft | 422 kts | 264° |
| 2026-05-06 14:07 | 39.28941 | -6.60774 | 36930 ft | 421 kts | 264° |
| 2026-05-06 14:08 | 39.28477 | -6.68274 | 36928 ft | 422 kts | 264° |
| 2026-05-06 14:08 | 39.28009 | -6.75795 | 36932 ft | 421 kts | 264° |
| 2026-05-06 14:09 | 39.27536 | -6.83351 | 36929 ft | 421 kts | 264° |
| 2026-05-06 14:09 | 39.27041 | -6.90908 | 36925 ft | 422 kts | 264° |
| 2026-05-06 14:10 | 39.26533 | -6.98401 | 36850 ft | 423 kts | 264° |
| 2026-05-06 14:10 | 39.26275 | -7.02187 | 36529 ft | 420 kts | 264° |
| 2026-05-06 14:10 | 39.26015 | -7.05988 | 35362 ft | 430 kts | 264° |
| 2026-05-06 14:11 | 39.25724 | -7.09783 | 34861 ft | 425 kts | 260° |
| 2026-05-06 14:11 | 39.24871 | -7.13414 | 34195 ft | 424 kts | 246° |
| 2026-05-06 14:11 | 39.23575 | -7.16880 | 33109 ft | 431 kts | 245° |
| 2026-05-06 14:11 | 39.22243 | -7.20391 | 32127 ft | 435 kts | 244° |
| 2026-05-06 14:12 | 39.20902 | -7.23848 | 31609 ft | 428 kts | 244° |
| 2026-05-06 14:12 | 39.19569 | -7.27236 | 31093 ft | 423 kts | 244° |
| 2026-05-06 14:12 | 39.18685 | -7.29465 | 30724 ft | 421 kts | 243° |
| 2026-05-06 14:12 | 39.17349 | -7.32823 | 30144 ft | 418 kts | 243° |
| 2026-05-06 14:13 | 39.15594 | -7.37225 | 29285 ft | 415 kts | 243° |
| 2026-05-06 14:13 | 39.14278 | -7.40520 | 28713 ft | 411 kts | 243° |
| 2026-05-06 14:13 | 39.13414 | -7.42682 | 28343 ft | 408 kts | 243° |
| 2026-05-06 14:13 | 39.12123 | -7.45909 | 27800 ft | 404 kts | 243° |
| 2026-05-06 14:14 | 39.10836 | -7.49121 | 27238 ft | 401 kts | 243° |
| 2026-05-06 14:14 | 39.09563 | -7.52297 | 26712 ft | 397 kts | 243° |
| 2026-05-06 14:14 | 39.08304 | -7.55434 | 26185 ft | 395 kts | 243° |
| 2026-05-06 14:14 | 39.07047 | -7.58565 | 25637 ft | 393 kts | 243° |
| 2026-05-06 14:15 | 39.05793 | -7.61685 | 25167 ft | 389 kts | 243° |
| 2026-05-06 14:15 | 39.04570 | -7.64741 | 24934 ft | 380 kts | 244° |
| 2026-05-06 14:15 | 39.03413 | -7.67793 | 24592 ft | 378 kts | 244° |
| 2026-05-06 14:15 | 39.02259 | -7.70827 | 24273 ft | 377 kts | 243° |
| 2026-05-06 14:16 | 39.00936 | -7.73688 | 24036 ft | 368 kts | 238° |
| 2026-05-06 14:16 | 38.99612 | -7.76421 | 23891 ft | 365 kts | 239° |
| 2026-05-06 14:16 | 38.98254 | -7.79261 | 23712 ft | 377 kts | 239° |
| 2026-05-06 14:16 | 38.96874 | -7.82165 | 23529 ft | 382 kts | 239° |
| 2026-05-06 14:17 | 38.95506 | -7.85056 | 23139 ft | 382 kts | 239° |
| 2026-05-06 14:17 | 38.94131 | -7.87961 | 22664 ft | 380 kts | 239° |
| 2026-05-06 14:17 | 38.92759 | -7.90860 | 22180 ft | 378 kts | 239° |
| 2026-05-06 14:17 | 38.91390 | -7.93751 | 21691 ft | 375 kts | 239° |
| 2026-05-06 14:18 | 38.90033 | -7.96612 | 21220 ft | 373 kts | 239° |
| 2026-05-06 14:18 | 38.88701 | -7.99420 | 20791 ft | 371 kts | 239° |
| 2026-05-06 14:18 | 38.87361 | -8.02242 | 20353 ft | 369 kts | 239° |
| 2026-05-06 14:18 | 38.86025 | -8.05053 | 19924 ft | 367 kts | 239° |
| 2026-05-06 14:19 | 38.84699 | -8.07842 | 19500 ft | 365 kts | 239° |
| 2026-05-06 14:19 | 38.83373 | -8.10625 | 19079 ft | 363 kts | 239° |
| 2026-05-06 14:19 | 38.82077 | -8.13346 | 18673 ft | 362 kts | 239° |
| 2026-05-06 14:19 | 38.80763 | -8.16102 | 18261 ft | 361 kts | 239° |
| 2026-05-06 14:20 | 38.79457 | -8.18837 | 17794 ft | 359 kts | 239° |
| 2026-05-06 14:20 | 38.78152 | -8.21570 | 17333 ft | 357 kts | 239° |
| 2026-05-06 14:20 | 38.76856 | -8.24279 | 16879 ft | 355 kts | 239° |
| 2026-05-06 14:20 | 38.75582 | -8.26942 | 16434 ft | 353 kts | 239° |
| 2026-05-06 14:21 | 38.74300 | -8.29618 | 15980 ft | 352 kts | 238° |
| 2026-05-06 14:21 | 38.73023 | -8.32282 | 15555 ft | 350 kts | 238° |
| 2026-05-06 14:21 | 38.71750 | -8.34935 | 15125 ft | 348 kts | 238° |
| 2026-05-06 14:21 | 38.70482 | -8.37577 | 14705 ft | 346 kts | 238° |
| 2026-05-06 14:22 | 38.69224 | -8.40195 | 14283 ft | 345 kts | 238° |
| 2026-05-06 14:22 | 38.67982 | -8.42777 | 13878 ft | 343 kts | 238° |
| 2026-05-06 14:22 | 38.66731 | -8.45377 | 13427 ft | 342 kts | 238° |
| 2026-05-06 14:22 | 38.65487 | -8.47961 | 12967 ft | 340 kts | 238° |
| 2026-05-06 14:23 | 38.64263 | -8.50500 | 12506 ft | 329 kts | 239° |
| 2026-05-06 14:23 | 38.63079 | -8.52952 | 12060 ft | 318 kts | 239° |
| 2026-05-06 14:23 | 38.61936 | -8.55319 | 11621 ft | 309 kts | 239° |
| 2026-05-06 14:23 | 38.60819 | -8.57632 | 11194 ft | 301 kts | 239° |
| 2026-05-06 14:24 | 38.59746 | -8.59850 | 10828 ft | 291 kts | 239° |
| 2026-05-06 14:24 | 38.58695 | -8.62023 | 10575 ft | 286 kts | 239° |
| 2026-05-06 14:24 | 38.57647 | -8.64187 | 10338 ft | 287 kts | 239° |
| 2026-05-06 14:24 | 38.56603 | -8.66343 | 10123 ft | 286 kts | 239° |
| 2026-05-06 14:25 | 38.55555 | -8.68505 | 9890 ft | 285 kts | 239° |
| 2026-05-06 14:25 | 38.54511 | -8.70657 | 9628 ft | 284 kts | 239° |
| 2026-05-06 14:25 | 38.53466 | -8.72809 | 9369 ft | 284 kts | 239° |
| 2026-05-06 14:25 | 38.52424 | -8.74956 | 9111 ft | 283 kts | 239° |
| 2026-05-06 14:26 | 38.51387 | -8.77087 | 8851 ft | 282 kts | 239° |
| 2026-05-06 14:26 | 38.50356 | -8.79209 | 8604 ft | 280 kts | 239° |
| 2026-05-06 14:26 | 38.49355 | -8.81263 | 8340 ft | 270 kts | 239° |
| 2026-05-06 14:26 | 38.48383 | -8.83257 | 8075 ft | 259 kts | 239° |
| 2026-05-06 14:27 | 38.47446 | -8.85181 | 7818 ft | 253 kts | 239° |
| 2026-05-06 14:27 | 38.46520 | -8.87081 | 7561 ft | 251 kts | 239° |
| 2026-05-06 14:27 | 38.45598 | -8.88969 | 7364 ft | 249 kts | 240° |
| 2026-05-06 14:27 | 38.44683 | -8.90844 | 7208 ft | 249 kts | 240° |
| 2026-05-06 14:28 | 38.43787 | -8.92721 | 7055 ft | 248 kts | 246° |
| 2026-05-06 14:28 | 38.43463 | -8.94814 | 6979 ft | 239 kts | 278° |
| 2026-05-06 14:28 | 38.43951 | -8.96795 | 7026 ft | 240 kts | 301° |
| 2026-05-06 14:28 | 38.44907 | -8.98524 | 6985 ft | 234 kts | 309° |
| 2026-05-06 14:29 | 38.45858 | -9.00132 | 6837 ft | 222 kts | 309° |
| 2026-05-06 14:29 | 38.46773 | -9.01697 | 6638 ft | 218 kts | 309° |
| 2026-05-06 14:29 | 38.47666 | -9.03241 | 6442 ft | 213 kts | 309° |
| 2026-05-06 14:29 | 38.48543 | -9.04765 | 6192 ft | 214 kts | 308° |
| 2026-05-06 14:30 | 38.49418 | -9.06303 | 5912 ft | 213 kts | 308° |
| 2026-05-06 14:30 | 38.50282 | -9.07827 | 5599 ft | 210 kts | 309° |
| 2026-05-06 14:30 | 38.51139 | -9.09337 | 5294 ft | 209 kts | 308° |
| 2026-05-06 14:30 | 38.51990 | -9.10841 | 5011 ft | 208 kts | 308° |
| 2026-05-06 14:31 | 38.52823 | -9.12314 | 4802 ft | 205 kts | 309° |
| 2026-05-06 14:31 | 38.53660 | -9.13795 | 4592 ft | 203 kts | 308° |
| 2026-05-06 14:31 | 38.54486 | -9.15260 | 4382 ft | 205 kts | 308° |
| 2026-05-06 14:31 | 38.55318 | -9.16736 | 4190 ft | 204 kts | 308° |
| 2026-05-06 14:32 | 38.56141 | -9.18194 | 3981 ft | 200 kts | 309° |
| 2026-05-06 14:32 | 38.56953 | -9.19635 | 3774 ft | 201 kts | 309° |
| 2026-05-06 14:32 | 38.57749 | -9.21051 | 3562 ft | 190 kts | 309° |
| 2026-05-06 14:32 | 38.58585 | -9.22255 | 3312 ft | 178 kts | 329° |
| 2026-05-06 14:33 | 38.59741 | -9.22662 | 3133 ft | 172 kts | 358° |
| 2026-05-06 14:33 | 38.60937 | -9.22529 | 3075 ft | 173 kts | 8° |
| 2026-05-06 14:33 | 38.62095 | -9.22126 | 3018 ft | 172 kts | 17° |
| 2026-05-06 14:33 | 38.63213 | -9.21557 | 3016 ft | 172 kts | 19° |
| 2026-05-06 14:34 | 38.64316 | -9.20967 | 2904 ft | 172 kts | 19° |
| 2026-05-06 14:34 | 38.65407 | -9.20387 | 2706 ft | 170 kts | 19° |
| 2026-05-06 14:34 | 38.66455 | -9.19826 | 2508 ft | 153 kts | 18° |
| 2026-05-06 14:34 | 38.67398 | -9.19322 | 2336 ft | 143 kts | 18° |
| 2026-05-06 14:35 | 38.68312 | -9.18836 | 2143 ft | 142 kts | 18° |
| 2026-05-06 14:35 | 38.69217 | -9.18355 | 1950 ft | 140 kts | 18° |
| 2026-05-06 14:35 | 38.70113 | -9.17877 | 1768 ft | 138 kts | 16° |
| 2026-05-06 14:35 | 38.70997 | -9.17407 | 1586 ft | 137 kts | 17° |
| 2026-05-06 14:36 | 38.71890 | -9.16929 | 1393 ft | 140 kts | 18° |
| 2026-05-06 14:36 | 38.72791 | -9.16419 | 1193 ft | 143 kts | 19° |
| 2026-05-06 14:36 | 38.73697 | -9.15906 | 1006 ft | 141 kts | 15° |
| 2026-05-06 14:36 | 38.74608 | -9.15464 | 809 ft | 141 kts | 19° |
| 2026-05-06 14:37 | 38.75514 | -9.14979 | 624 ft | 140 kts | 18° |
| 2026-05-06 14:37 | 38.76410 | -9.14509 | 419 ft | 137 kts | 18° |
| 2026-05-06 14:37 | 38.77262 | -9.14069 | 364 ft | 122 kts | 15° |
| 2026-05-06 14:37 | 38.77921 | -9.13716 | 371 ft | 84 kts | 22° |
| 2026-05-06 14:38 | 38.78440 | -9.13429 | 367 ft | 77 kts | 22° |
| 2026-05-06 14:38 | 38.78893 | -9.13191 | 366 ft | 61 kts | 23° |
| 2026-05-06 14:38 | 38.79255 | -9.12994 | 357 ft | 50 kts | 23° |
| 2026-05-06 14:38 | 38.79561 | -9.12827 | 361 ft | 32 kts | 24° |
| 2026-05-06 14:39 | 38.79728 | -9.12801 | 363 ft | 22 kts | 310° |
| 2026-05-06 14:39 | 38.79775 | -9.12917 | 358 ft | 5 kts | 278° |
| 2026-05-06 14:39 | 38.79764 | -9.12957 | 363 ft | 7 kts | 223° |
| 2026-05-06 14:39 | 38.79681 | -9.13010 | 367 ft | 20 kts | 204° |
| 2026-05-06 14:40 | 38.79512 | -9.13103 | 360 ft | 34 kts | 204° |
| 2026-05-06 14:40 | 38.79259 | -9.13237 | 356 ft | 41 kts | 203° |
| 2026-05-06 14:40 | 38.79043 | -9.13353 | 355 ft | 32 kts | 202° |
| 2026-05-06 14:40 | 38.78910 | -9.13424 | 355 ft | 12 kts | 203° |
| 2026-05-06 14:41 | 38.78837 | -9.13438 | 365 ft | 9 kts | 170° |
| 2026-05-06 14:41 | 38.78782 | -9.13421 | 361 ft | 2 kts | 167° |
| 2026-05-06 14:44 | 38.78766 | -9.13416 | 364 ft | 7 kts | 167° |
| 2026-05-06 14:45 | 38.78622 | -9.13377 | 363 ft | 13 kts | 168° |
| 2026-05-06 14:45 | 38.78544 | -9.13308 | 364 ft | 15 kts | 112° |
| 2026-05-06 14:45 | 38.78470 | -9.13227 | 363 ft | 15 kts | 167° |
| 2026-05-06 14:45 | 38.78400 | -9.13224 | 362 ft | 0 kts | 196° |
| 2026-05-06 14:46 | 38.78383 | -9.13230 | 365 ft | 6 kts | 196° |
| 2026-05-06 14:46 | 38.78315 | -9.13267 | 363 ft | 14 kts | 203° |
| 2026-05-06 14:46 | 38.78212 | -9.13321 | 365 ft | 17 kts | 201° |
| 2026-05-06 14:46 | 38.78097 | -9.13381 | 364 ft | 19 kts | 202° |
| 2026-05-06 14:47 | 38.77966 | -9.13451 | 361 ft | 22 kts | 204° |
| 2026-05-06 14:47 | 38.77818 | -9.13531 | 361 ft | 24 kts | 201° |
| 2026-05-06 14:47 | 38.77726 | -9.13579 | 361 ft | 13 kts | 202° |
| 2026-05-06 14:47 | 38.77642 | -9.13595 | 364 ft | 14 kts | 165° |
| 2026-05-06 14:48 | 38.77538 | -9.13565 | 353 ft | 15 kts | 168° |
| 2026-05-06 14:48 | 38.77422 | -9.13537 | 350 ft | 19 kts | 168° |
| 2026-05-06 14:48 | 38.77284 | -9.13499 | 349 ft | 22 kts | 168° |
| 2026-05-06 14:48 | 38.77132 | -9.13457 | 348 ft | 24 kts | 168° |
| 2026-05-06 14:49 | 38.76959 | -9.13412 | 351 ft | 27 kts | 168° |
| 2026-05-06 14:49 | 38.76801 | -9.13369 | 345 ft | 13 kts | 167° |
| 2026-05-06 14:49 | 38.76737 | -9.13389 | 350 ft | 8 kts | 219° |
| 2026-05-06 14:49 | 38.76691 | -9.13430 | 351 ft | 9 kts | 214° |
| 2026-05-06 14:50 | 38.76654 | -9.13488 | 355 ft | 9 kts | 257° |
| 2026-05-06 14:50 | 38.76639 | -9.13575 | 351 ft | 11 kts | 258° |
| 2026-05-06 14:50 | 38.76615 | -9.13658 | 353 ft | 9 kts | 213° |
| 2026-05-06 14:50 | 38.76562 | -9.13670 | 352 ft | 6 kts | 213° |
| 2026-05-06 14:51 | 38.76542 | -9.13723 | 358 ft | 7 kts | 258° |
| 2026-05-06 14:51 | 38.76530 | -9.13799 | 355 ft | 10 kts | 258° |
| 2026-05-06 14:51 | 38.76518 | -9.13842 | 350 ft | 1 kts | 215° |
| 2026-05-06 14:51 | 38.76495 | -9.13845 | 350 ft | 8 kts | 175° |
| 2026-05-06 14:52 | 38.76452 | -9.13833 | 350 ft | 0 kts | 168° |
| 2026-05-06 14:52 | 38.76448 | -9.13832 | 350 ft | 1 kts | 168° |